sensor_id;sensor_type;location;lat;lon;timestamp;temperature;humidity
55064;DHT22;40963;52.168;21.296;2022-07-23T00:01:17;19.70;99.90
55064;DHT22;40963;52.168;21.296;2022-07-23T00:03:43;19.60;99.90
55064;DHT22;40963;52.168;21.296;2022-07-23T00:06:08;19.60;99.90
55064;DHT22;40963;52.168;21.296;2022-07-23T00:08:35;19.60;99.90
55064;DHT22;40963;52.168;21.296;2022-07-23T00:11:01;19.60;99.90
55064;DHT22;40963;52.168;21.296;2022-07-23T00:13:27;19.60;99.90
55064;DHT22;40963;52.168;21.296;2022-07-23T00:15:53;19.50;99.90
55064;DHT22;40963;52.168;21.296;2022-07-23T00:18:19;19.50;99.90
55064;DHT22;40963;52.168;21.296;2022-07-23T00:20:44;19.50;99.90
55064;DHT22;40963;52.168;21.296;2022-07-23T00:23:10;19.40;99.90
55064;DHT22;40963;52.168;21.296;2022-07-23T00:25:36;19.40;99.90
55064;DHT22;40963;52.168;21.296;2022-07-23T00:28:02;19.40;99.90
55064;DHT22;40963;52.168;21.296;2022-07-23T00:30:29;19.40;99.90
55064;DHT22;40963;52.168;21.296;2022-07-23T00:33:01;19.30;99.90
55064;DHT22;40963;52.168;21.296;2022-07-23T00:35:31;19.30;99.90
55064;DHT22;40963;52.168;21.296;2022-07-23T00:37:57;19.30;99.90
55064;DHT22;40963;52.168;21.296;2022-07-23T00:40:24;19.20;99.90
55064;DHT22;40963;52.168;21.296;2022-07-23T00:42:50;19.20;99.90
55064;DHT22;40963;52.168;21.296;2022-07-23T00:45:16;19.20;99.90
55064;DHT22;40963;52.168;21.296;2022-07-23T00:47:42;19.10;99.90
55064;DHT22;40963;52.168;21.296;2022-07-23T00:50:09;19.10;99.90
55064;DHT22;40963;52.168;21.296;2022-07-23T00:52:36;19.10;99.90
55064;DHT22;40963;52.168;21.296;2022-07-23T00:55:03;19.10;99.90
55064;DHT22;40963;52.168;21.296;2022-07-23T00:57:29;19.00;99.90
55064;DHT22;40963;52.168;21.296;2022-07-23T00:59:55;19.00;99.90
55064;DHT22;40963;52.168;21.296;2022-07-23T01:02:21;19.00;99.90
55064;DHT22;40963;52.168;21.296;2022-07-23T01:04:47;19.00;99.90
55064;DHT22;40963;52.168;21.296;2022-07-23T01:07:13;18.90;99.90
55064;DHT22;40963;52.168;21.296;2022-07-23T01:09:39;18.90;99.90
55064;DHT22;40963;52.168;21.296;2022-07-23T01:12:06;18.90;99.90
55064;DHT22;40963;52.168;21.296;2022-07-23T01:14:32;18.90;99.90
55064;DHT22;40963;52.168;21.296;2022-07-23T01:16:57;18.80;99.90
55064;DHT22;40963;52.168;21.296;2022-07-23T01:19:23;18.80;99.90
55064;DHT22;40963;52.168;21.296;2022-07-23T01:21:51;18.80;99.90
55064;DHT22;40963;52.168;21.296;2022-07-23T01:24:18;18.80;99.90
55064;DHT22;40963;52.168;21.296;2022-07-23T01:26:48;18.80;99.90
55064;DHT22;40963;52.168;21.296;2022-07-23T01:29:14;18.70;99.90
55064;DHT22;40963;52.168;21.296;2022-07-23T01:31:41;18.70;99.90
55064;DHT22;40963;52.168;21.296;2022-07-23T01:34:07;18.70;99.90
55064;DHT22;40963;52.168;21.296;2022-07-23T01:36:33;18.70;99.90
55064;DHT22;40963;52.168;21.296;2022-07-23T01:38:59;18.70;99.90
55064;DHT22;40963;52.168;21.296;2022-07-23T01:41:25;18.60;99.90
55064;DHT22;40963;52.168;21.296;2022-07-23T01:43:51;18.60;99.90
55064;DHT22;40963;52.168;21.296;2022-07-23T01:46:16;18.60;99.90
55064;DHT22;40963;52.168;21.296;2022-07-23T01:48:42;18.60;99.90
55064;DHT22;40963;52.168;21.296;2022-07-23T01:51:08;18.60;99.90
55064;DHT22;40963;52.168;21.296;2022-07-23T01:53:34;18.60;99.90
55064;DHT22;40963;52.168;21.296;2022-07-23T01:56:00;18.60;99.90
55064;DHT22;40963;52.168;21.296;2022-07-23T01:58:27;18.60;99.90
55064;DHT22;40963;52.168;21.296;2022-07-23T02:00:53;18.50;99.90
55064;DHT22;40963;52.168;21.296;2022-07-23T02:03:19;18.50;99.90
55064;DHT22;40963;52.168;21.296;2022-07-23T02:05:45;18.50;99.90
55064;DHT22;40963;52.168;21.296;2022-07-23T02:08:11;18.50;99.90
55064;DHT22;40963;52.168;21.296;2022-07-23T02:10:37;18.40;99.90
55064;DHT22;40963;52.168;21.296;2022-07-23T02:13:03;18.40;99.90
55064;DHT22;40963;52.168;21.296;2022-07-23T02:15:28;18.40;99.90
55064;DHT22;40963;52.168;21.296;2022-07-23T02:17:54;18.30;99.90
55064;DHT22;40963;52.168;21.296;2022-07-23T02:20:21;18.30;99.90
55064;DHT22;40963;52.168;21.296;2022-07-23T02:22:47;18.30;99.90
55064;DHT22;40963;52.168;21.296;2022-07-23T02:25:13;18.30;99.90
55064;DHT22;40963;52.168;21.296;2022-07-23T02:27:39;18.20;99.90
55064;DHT22;40963;52.168;21.296;2022-07-23T02:30:05;18.20;99.90
55064;DHT22;40963;52.168;21.296;2022-07-23T02:32:31;18.20;99.90
55064;DHT22;40963;52.168;21.296;2022-07-23T02:34:56;18.20;99.90
55064;DHT22;40963;52.168;21.296;2022-07-23T02:37:22;18.10;99.90
55064;DHT22;40963;52.168;21.296;2022-07-23T02:39:48;18.10;99.90
55064;DHT22;40963;52.168;21.296;2022-07-23T02:42:14;18.10;99.90
55064;DHT22;40963;52.168;21.296;2022-07-23T02:44:40;18.10;99.90
55064;DHT22;40963;52.168;21.296;2022-07-23T02:47:06;18.10;99.90
55064;DHT22;40963;52.168;21.296;2022-07-23T02:49:32;18.00;99.90
55064;DHT22;40963;52.168;21.296;2022-07-23T02:51:58;18.00;99.90
55064;DHT22;40963;52.168;21.296;2022-07-23T02:54:23;18.00;99.90
55064;DHT22;40963;52.168;21.296;2022-07-23T02:56:49;18.00;99.90
55064;DHT22;40963;52.168;21.296;2022-07-23T02:59:16;18.00;99.90
55064;DHT22;40963;52.168;21.296;2022-07-23T03:01:43;18.00;99.90
55064;DHT22;40963;52.168;21.296;2022-07-23T03:04:08;18.00;99.90
55064;DHT22;40963;52.168;21.296;2022-07-23T03:06:34;17.90;99.90
55064;DHT22;40963;52.168;21.296;2022-07-23T03:09:00;17.90;99.90
55064;DHT22;40963;52.168;21.296;2022-07-23T03:11:25;17.90;99.90
55064;DHT22;40963;52.168;21.296;2022-07-23T03:13:51;17.90;99.90
55064;DHT22;40963;52.168;21.296;2022-07-23T03:16:17;17.90;99.90
55064;DHT22;40963;52.168;21.296;2022-07-23T03:18:42;17.90;99.90
55064;DHT22;40963;52.168;21.296;2022-07-23T03:21:08;17.90;99.90
55064;DHT22;40963;52.168;21.296;2022-07-23T03:23:34;17.90;99.90
55064;DHT22;40963;52.168;21.296;2022-07-23T03:26:00;17.90;99.90
55064;DHT22;40963;52.168;21.296;2022-07-23T03:28:25;17.90;99.90
55064;DHT22;40963;52.168;21.296;2022-07-23T03:30:51;17.90;99.90
55064;DHT22;40963;52.168;21.296;2022-07-23T03:33:18;17.90;99.90
55064;DHT22;40963;52.168;21.296;2022-07-23T03:35:45;17.90;99.90
55064;DHT22;40963;52.168;21.296;2022-07-23T03:38:11;17.90;99.90
55064;DHT22;40963;52.168;21.296;2022-07-23T03:40:36;17.90;99.90
55064;DHT22;40963;52.168;21.296;2022-07-23T03:43:02;17.90;99.90
55064;DHT22;40963;52.168;21.296;2022-07-23T03:45:28;17.80;99.90
55064;DHT22;40963;52.168;21.296;2022-07-23T03:47:54;17.90;99.90
55064;DHT22;40963;52.168;21.296;2022-07-23T03:50:20;17.90;99.90
55064;DHT22;40963;52.168;21.296;2022-07-23T03:52:46;17.90;99.90
55064;DHT22;40963;52.168;21.296;2022-07-23T03:55:12;18.00;99.90
55064;DHT22;40963;52.168;21.296;2022-07-23T03:57:37;18.00;99.90
55064;DHT22;40963;52.168;21.296;2022-07-23T04:00:05;18.00;99.90
55064;DHT22;40963;52.168;21.296;2022-07-23T04:02:32;18.10;99.90
55064;DHT22;40963;52.168;21.296;2022-07-23T04:04:58;18.10;99.90
55064;DHT22;40963;52.168;21.296;2022-07-23T04:07:26;18.10;99.90
55064;DHT22;40963;52.168;21.296;2022-07-23T04:09:52;18.20;99.90
55064;DHT22;40963;52.168;21.296;2022-07-23T04:12:18;18.20;99.90
55064;DHT22;40963;52.168;21.296;2022-07-23T04:14:44;18.30;99.90
55064;DHT22;40963;52.168;21.296;2022-07-23T04:17:10;18.40;99.90
55064;DHT22;40963;52.168;21.296;2022-07-23T04:19:36;18.40;99.90
55064;DHT22;40963;52.168;21.296;2022-07-23T04:22:06;18.50;99.90
55064;DHT22;40963;52.168;21.296;2022-07-23T04:24:32;18.60;99.90
55064;DHT22;40963;52.168;21.296;2022-07-23T04:26:58;18.60;99.90
55064;DHT22;40963;52.168;21.296;2022-07-23T04:29:24;18.70;99.90
55064;DHT22;40963;52.168;21.296;2022-07-23T04:31:49;18.80;99.90
55064;DHT22;40963;52.168;21.296;2022-07-23T04:34:15;18.80;99.90
55064;DHT22;40963;52.168;21.296;2022-07-23T04:36:41;18.90;99.90
55064;DHT22;40963;52.168;21.296;2022-07-23T04:39:07;19.00;99.90
55064;DHT22;40963;52.168;21.296;2022-07-23T04:41:32;19.10;99.90
55064;DHT22;40963;52.168;21.296;2022-07-23T04:43:59;19.10;99.90
55064;DHT22;40963;52.168;21.296;2022-07-23T04:46:25;19.20;99.90
55064;DHT22;40963;52.168;21.296;2022-07-23T04:48:51;19.30;99.90
55064;DHT22;40963;52.168;21.296;2022-07-23T04:51:16;19.40;99.90
55064;DHT22;40963;52.168;21.296;2022-07-23T04:53:42;19.50;99.90
55064;DHT22;40963;52.168;21.296;2022-07-23T04:56:08;19.60;99.90
55064;DHT22;40963;52.168;21.296;2022-07-23T04:58:33;19.70;99.90
55064;DHT22;40963;52.168;21.296;2022-07-23T05:00:59;19.80;99.90
55064;DHT22;40963;52.168;21.296;2022-07-23T05:03:25;19.90;99.90
55064;DHT22;40963;52.168;21.296;2022-07-23T05:05:50;20.10;99.90
55064;DHT22;40963;52.168;21.296;2022-07-23T05:08:16;20.20;99.90
55064;DHT22;40963;52.168;21.296;2022-07-23T05:10:42;20.30;99.90
55064;DHT22;40963;52.168;21.296;2022-07-23T05:13:07;20.40;99.90
55064;DHT22;40963;52.168;21.296;2022-07-23T05:15:33;20.50;99.90
55064;DHT22;40963;52.168;21.296;2022-07-23T05:17:58;20.60;99.90
55064;DHT22;40963;52.168;21.296;2022-07-23T05:20:24;20.70;99.90
55064;DHT22;40963;52.168;21.296;2022-07-23T05:22:50;20.80;99.90
55064;DHT22;40963;52.168;21.296;2022-07-23T05:25:16;21.00;99.90
55064;DHT22;40963;52.168;21.296;2022-07-23T05:27:42;21.10;99.90
55064;DHT22;40963;52.168;21.296;2022-07-23T05:30:08;21.20;99.90
55064;DHT22;40963;52.168;21.296;2022-07-23T05:32:34;21.30;99.90
55064;DHT22;40963;52.168;21.296;2022-07-23T05:35:01;21.40;99.90
55064;DHT22;40963;52.168;21.296;2022-07-23T05:37:26;21.60;99.90
55064;DHT22;40963;52.168;21.296;2022-07-23T05:39:52;21.70;99.90
55064;DHT22;40963;52.168;21.296;2022-07-23T05:42:18;21.90;99.90
55064;DHT22;40963;52.168;21.296;2022-07-23T05:44:43;22.00;99.90
55064;DHT22;40963;52.168;21.296;2022-07-23T05:47:09;22.20;99.90
55064;DHT22;40963;52.168;21.296;2022-07-23T05:49:37;22.30;99.90
55064;DHT22;40963;52.168;21.296;2022-07-23T05:52:05;22.40;99.90
55064;DHT22;40963;52.168;21.296;2022-07-23T05:54:31;22.50;99.90
55064;DHT22;40963;52.168;21.296;2022-07-23T05:56:56;22.70;99.90
55064;DHT22;40963;52.168;21.296;2022-07-23T05:59:22;22.70;99.60
55064;DHT22;40963;52.168;21.296;2022-07-23T06:01:47;22.90;99.40
55064;DHT22;40963;52.168;21.296;2022-07-23T06:04:13;23.00;98.80
55064;DHT22;40963;52.168;21.296;2022-07-23T06:06:39;23.10;98.50
55064;DHT22;40963;52.168;21.296;2022-07-23T06:09:04;23.20;98.30
55064;DHT22;40963;52.168;21.296;2022-07-23T06:11:30;23.40;97.90
55064;DHT22;40963;52.168;21.296;2022-07-23T06:13:56;23.50;97.40
55064;DHT22;40963;52.168;21.296;2022-07-23T06:16:21;23.50;96.80
55064;DHT22;40963;52.168;21.296;2022-07-23T06:18:47;23.70;96.50
55064;DHT22;40963;52.168;21.296;2022-07-23T06:21:13;23.80;96.20
55064;DHT22;40963;52.168;21.296;2022-07-23T06:23:38;23.90;96.00
55064;DHT22;40963;52.168;21.296;2022-07-23T06:26:04;24.00;95.80
55064;DHT22;40963;52.168;21.296;2022-07-23T06:28:30;24.10;95.30
55064;DHT22;40963;52.168;21.296;2022-07-23T06:30:55;24.20;94.80
55064;DHT22;40963;52.168;21.296;2022-07-23T06:33:21;24.30;94.20
55064;DHT22;40963;52.168;21.296;2022-07-23T06:35:47;24.40;93.60
55064;DHT22;40963;52.168;21.296;2022-07-23T06:38:12;24.50;93.20
55064;DHT22;40963;52.168;21.296;2022-07-23T06:40:38;24.60;92.80
55064;DHT22;40963;52.168;21.296;2022-07-23T06:43:04;24.70;92.60
55064;DHT22;40963;52.168;21.296;2022-07-23T06:45:29;24.80;91.90
55064;DHT22;40963;52.168;21.296;2022-07-23T06:47:55;24.90;91.30
55064;DHT22;40963;52.168;21.296;2022-07-23T06:50:21;25.00;90.80
55064;DHT22;40963;52.168;21.296;2022-07-23T06:52:46;25.10;90.20
55064;DHT22;40963;52.168;21.296;2022-07-23T06:55:12;25.20;89.60
55064;DHT22;40963;52.168;21.296;2022-07-23T06:57:37;25.30;88.80
55064;DHT22;40963;52.168;21.296;2022-07-23T07:00:04;25.30;87.40
55064;DHT22;40963;52.168;21.296;2022-07-23T07:02:30;25.40;86.60
55064;DHT22;40963;52.168;21.296;2022-07-23T07:04:55;25.50;85.70
55064;DHT22;40963;52.168;21.296;2022-07-23T07:07:21;25.70;84.70
55064;DHT22;40963;52.168;21.296;2022-07-23T07:09:47;25.70;84.20
55064;DHT22;40963;52.168;21.296;2022-07-23T07:12:13;25.90;83.20
55064;DHT22;40963;52.168;21.296;2022-07-23T07:14:38;26.00;82.00
55064;DHT22;40963;52.168;21.296;2022-07-23T07:17:04;26.00;80.80
55064;DHT22;40963;52.168;21.296;2022-07-23T07:19:30;26.10;79.80
55064;DHT22;40963;52.168;21.296;2022-07-23T07:21:55;26.20;79.00
55064;DHT22;40963;52.168;21.296;2022-07-23T07:24:21;26.30;77.70
55064;DHT22;40963;52.168;21.296;2022-07-23T07:26:47;26.40;75.90
55064;DHT22;40963;52.168;21.296;2022-07-23T07:29:13;26.40;74.80
55064;DHT22;40963;52.168;21.296;2022-07-23T07:31:38;26.60;74.90
55064;DHT22;40963;52.168;21.296;2022-07-23T07:34:04;26.60;73.70
55064;DHT22;40963;52.168;21.296;2022-07-23T07:36:29;26.80;73.20
55064;DHT22;40963;52.168;21.296;2022-07-23T07:38:55;26.90;72.20
55064;DHT22;40963;52.168;21.296;2022-07-23T07:41:21;27.00;71.40
55064;DHT22;40963;52.168;21.296;2022-07-23T07:43:50;27.10;70.70
55064;DHT22;40963;52.168;21.296;2022-07-23T07:46:16;27.20;69.90
55064;DHT22;40963;52.168;21.296;2022-07-23T07:48:41;27.20;69.10
55064;DHT22;40963;52.168;21.296;2022-07-23T07:51:07;27.30;68.90
55064;DHT22;40963;52.168;21.296;2022-07-23T07:53:33;27.40;68.70
55064;DHT22;40963;52.168;21.296;2022-07-23T07:55:59;27.40;68.30
55064;DHT22;40963;52.168;21.296;2022-07-23T07:58:24;27.50;67.70
55064;DHT22;40963;52.168;21.296;2022-07-23T08:00:50;27.60;67.40
55064;DHT22;40963;52.168;21.296;2022-07-23T08:03:16;27.60;67.00
55064;DHT22;40963;52.168;21.296;2022-07-23T08:05:42;27.80;66.80
55064;DHT22;40963;52.168;21.296;2022-07-23T08:08:08;27.90;65.60
55064;DHT22;40963;52.168;21.296;2022-07-23T08:10:35;28.10;64.60
55064;DHT22;40963;52.168;21.296;2022-07-23T08:13:01;28.20;64.10
55064;DHT22;40963;52.168;21.296;2022-07-23T08:15:28;28.20;63.20
55064;DHT22;40963;52.168;21.296;2022-07-23T08:17:54;28.30;62.50
55064;DHT22;40963;52.168;21.296;2022-07-23T08:20:21;28.40;62.10
55064;DHT22;40963;52.168;21.296;2022-07-23T08:22:57;28.50;61.70
55064;DHT22;40963;52.168;21.296;2022-07-23T08:25:34;28.60;60.50
55064;DHT22;40963;52.168;21.296;2022-07-23T08:28:02;28.70;59.40
55064;DHT22;40963;52.168;21.296;2022-07-23T08:30:29;28.80;58.70
55064;DHT22;40963;52.168;21.296;2022-07-23T08:33:00;28.90;57.70
55064;DHT22;40963;52.168;21.296;2022-07-23T08:35:42;29.00;56.80
55064;DHT22;40963;52.168;21.296;2022-07-23T08:38:11;29.00;56.10
55064;DHT22;40963;52.168;21.296;2022-07-23T08:40:42;29.10;56.30
55064;DHT22;40963;52.168;21.296;2022-07-23T08:43:11;29.20;56.00
55064;DHT22;40963;52.168;21.296;2022-07-23T08:45:40;29.30;55.70
55064;DHT22;40963;52.168;21.296;2022-07-23T08:48:12;29.40;55.70
55064;DHT22;40963;52.168;21.296;2022-07-23T08:50:38;29.50;55.50
55064;DHT22;40963;52.168;21.296;2022-07-23T08:53:08;29.60;54.90
55064;DHT22;40963;52.168;21.296;2022-07-23T08:55:34;29.60;54.20
55064;DHT22;40963;52.168;21.296;2022-07-23T08:58:00;29.60;53.70
55064;DHT22;40963;52.168;21.296;2022-07-23T09:00:26;29.70;53.80
55064;DHT22;40963;52.168;21.296;2022-07-23T09:02:52;29.80;53.60
55064;DHT22;40963;52.168;21.296;2022-07-23T09:05:18;29.80;53.60
55064;DHT22;40963;52.168;21.296;2022-07-23T09:08:15;29.90;54.20
55064;DHT22;40963;52.168;21.296;2022-07-23T09:11:02;29.90;54.10
55064;DHT22;40963;52.168;21.296;2022-07-23T09:16:14;30.10;53.50
55064;DHT22;40963;52.168;21.296;2022-07-23T09:21:34;30.10;53.50
55064;DHT22;40963;52.168;21.296;2022-07-23T09:34:13;30.30;51.60
55064;DHT22;40963;52.168;21.296;2022-07-23T09:36:39;30.40;51.50
55064;DHT22;40963;52.168;21.296;2022-07-23T09:39:05;30.50;51.40
55064;DHT22;40963;52.168;21.296;2022-07-23T09:41:36;30.50;50.60
55064;DHT22;40963;52.168;21.296;2022-07-23T09:44:13;30.60;50.80
55064;DHT22;40963;52.168;21.296;2022-07-23T09:46:39;30.60;50.80
55064;DHT22;40963;52.168;21.296;2022-07-23T09:49:14;30.30;50.30
55064;DHT22;40963;52.168;21.296;2022-07-23T09:51:59;30.30;49.90
55064;DHT22;40963;52.168;21.296;2022-07-23T09:57:09;30.50;48.80
55064;DHT22;40963;52.168;21.296;2022-07-23T09:59:37;30.50;48.50
55064;DHT22;40963;52.168;21.296;2022-07-23T10:02:05;30.50;48.80
55064;DHT22;40963;52.168;21.296;2022-07-23T10:04:32;30.60;48.90
55064;DHT22;40963;52.168;21.296;2022-07-23T10:07:01;30.50;48.90
55064;DHT22;40963;52.168;21.296;2022-07-23T10:09:34;30.50;48.70
55064;DHT22;40963;52.168;21.296;2022-07-23T10:12:03;30.60;49.00
55064;DHT22;40963;52.168;21.296;2022-07-23T10:14:32;30.60;49.60
55064;DHT22;40963;52.168;21.296;2022-07-23T10:17:01;30.60;48.80
55064;DHT22;40963;52.168;21.296;2022-07-23T10:19:27;30.60;48.90
55064;DHT22;40963;52.168;21.296;2022-07-23T10:21:59;30.60;48.70
55064;DHT22;40963;52.168;21.296;2022-07-23T10:32:37;30.70;48.00
55064;DHT22;40963;52.168;21.296;2022-07-23T10:37:49;30.70;48.50
55064;DHT22;40963;52.168;21.296;2022-07-23T10:40:21;30.70;48.50
55064;DHT22;40963;52.168;21.296;2022-07-23T10:42:50;30.70;48.40
55064;DHT22;40963;52.168;21.296;2022-07-23T10:45:29;30.70;48.00
55064;DHT22;40963;52.168;21.296;2022-07-23T10:47:55;30.60;48.50
55064;DHT22;40963;52.168;21.296;2022-07-23T10:50:36;30.60;48.50
55064;DHT22;40963;52.168;21.296;2022-07-23T10:53:17;30.60;48.30
55064;DHT22;40963;52.168;21.296;2022-07-23T10:55:49;30.60;48.80
55064;DHT22;40963;52.168;21.296;2022-07-23T11:01:32;30.60;48.30
55064;DHT22;40963;52.168;21.296;2022-07-23T11:03:59;30.70;49.00
55064;DHT22;40963;52.168;21.296;2022-07-23T11:09:44;30.60;47.90
55064;DHT22;40963;52.168;21.296;2022-07-23T11:15:13;30.80;48.90
55064;DHT22;40963;52.168;21.296;2022-07-23T11:17:59;31.00;47.70
55064;DHT22;40963;52.168;21.296;2022-07-23T11:20:27;31.10;47.10
55064;DHT22;40963;52.168;21.296;2022-07-23T11:22:58;31.10;47.10
55064;DHT22;40963;52.168;21.296;2022-07-23T11:25:29;31.10;47.50
55064;DHT22;40963;52.168;21.296;2022-07-23T11:27:55;31.10;46.60
55064;DHT22;40963;52.168;21.296;2022-07-23T11:35:33;31.40;45.80
55064;DHT22;40963;52.168;21.296;2022-07-23T11:38:08;31.40;45.90
55064;DHT22;40963;52.168;21.296;2022-07-23T11:40:36;31.40;45.80
55064;DHT22;40963;52.168;21.296;2022-07-23T11:43:08;31.40;45.90
55064;DHT22;40963;52.168;21.296;2022-07-23T11:45:35;31.40;46.40
55064;DHT22;40963;52.168;21.296;2022-07-23T11:48:02;31.40;46.40
55064;DHT22;40963;52.168;21.296;2022-07-23T11:50:28;31.40;47.20
55064;DHT22;40963;52.168;21.296;2022-07-23T11:52:55;31.30;46.60
55064;DHT22;40963;52.168;21.296;2022-07-23T11:55:21;31.20;46.80
55064;DHT22;40963;52.168;21.296;2022-07-23T11:57:47;31.10;46.70
55064;DHT22;40963;52.168;21.296;2022-07-23T12:02:53;31.10;47.00
55064;DHT22;40963;52.168;21.296;2022-07-23T12:05:24;31.30;47.70
55064;DHT22;40963;52.168;21.296;2022-07-23T12:07:53;31.30;47.90
55064;DHT22;40963;52.168;21.296;2022-07-23T12:10:20;31.30;47.50
55064;DHT22;40963;52.168;21.296;2022-07-23T12:12:49;31.20;47.70
55064;DHT22;40963;52.168;21.296;2022-07-23T12:15:15;31.20;48.10
55064;DHT22;40963;52.168;21.296;2022-07-23T12:17:43;31.10;47.70
55064;DHT22;40963;52.168;21.296;2022-07-23T12:20:13;31.20;47.40
55064;DHT22;40963;52.168;21.296;2022-07-23T12:22:44;31.20;47.20
55064;DHT22;40963;52.168;21.296;2022-07-23T12:25:16;31.20;47.40
55064;DHT22;40963;52.168;21.296;2022-07-23T12:27:43;31.20;47.00
55064;DHT22;40963;52.168;21.296;2022-07-23T12:32:48;31.30;46.70
55064;DHT22;40963;52.168;21.296;2022-07-23T12:35:15;31.30;46.60
55064;DHT22;40963;52.168;21.296;2022-07-23T12:37:43;31.20;46.20
55064;DHT22;40963;52.168;21.296;2022-07-23T12:40:43;31.20;46.20
55064;DHT22;40963;52.168;21.296;2022-07-23T12:43:12;31.30;46.00
55064;DHT22;40963;52.168;21.296;2022-07-23T12:45:55;31.30;46.20
55064;DHT22;40963;52.168;21.296;2022-07-23T12:48:27;31.30;46.20
55064;DHT22;40963;52.168;21.296;2022-07-23T12:50:57;31.30;46.00
55064;DHT22;40963;52.168;21.296;2022-07-23T12:56:10;31.40;46.80
55064;DHT22;40963;52.168;21.296;2022-07-23T12:58:54;31.40;46.30
55064;DHT22;40963;52.168;21.296;2022-07-23T13:04:05;31.40;46.50
55064;DHT22;40963;52.168;21.296;2022-07-23T13:06:33;31.50;46.20
55064;DHT22;40963;52.168;21.296;2022-07-23T13:08:59;31.40;46.40
55064;DHT22;40963;52.168;21.296;2022-07-23T13:11:25;31.40;46.60
55064;DHT22;40963;52.168;21.296;2022-07-23T13:13:51;31.40;46.90
55064;DHT22;40963;52.168;21.296;2022-07-23T13:16:17;31.30;47.00
55064;DHT22;40963;52.168;21.296;2022-07-23T13:18:42;31.20;47.00
55064;DHT22;40963;52.168;21.296;2022-07-23T13:21:09;31.00;46.70
55064;DHT22;40963;52.168;21.296;2022-07-23T13:23:35;30.80;46.90
55064;DHT22;40963;52.168;21.296;2022-07-23T13:26:01;30.80;47.60
55064;DHT22;40963;52.168;21.296;2022-07-23T13:28:26;30.80;48.10
55064;DHT22;40963;52.168;21.296;2022-07-23T13:30:52;30.80;47.60
55064;DHT22;40963;52.168;21.296;2022-07-23T13:33:23;31.00;47.50
55064;DHT22;40963;52.168;21.296;2022-07-23T13:35:49;31.10;47.70
55064;DHT22;40963;52.168;21.296;2022-07-23T13:38:16;31.20;48.40
55064;DHT22;40963;52.168;21.296;2022-07-23T13:40:44;31.10;48.60
55064;DHT22;40963;52.168;21.296;2022-07-23T13:43:12;31.00;48.70
55064;DHT22;40963;52.168;21.296;2022-07-23T13:45:40;31.00;49.40
55064;DHT22;40963;52.168;21.296;2022-07-23T13:48:08;31.00;49.50
55064;DHT22;40963;52.168;21.296;2022-07-23T13:50:35;31.10;48.70
55064;DHT22;40963;52.168;21.296;2022-07-23T13:53:05;31.10;47.70
55064;DHT22;40963;52.168;21.296;2022-07-23T13:55:33;31.30;48.20
55064;DHT22;40963;52.168;21.296;2022-07-23T13:57:59;31.30;47.80
55064;DHT22;40963;52.168;21.296;2022-07-23T14:00:25;31.30;47.60
55064;DHT22;40963;52.168;21.296;2022-07-23T14:02:52;31.40;47.80
55064;DHT22;40963;52.168;21.296;2022-07-23T14:05:17;31.30;46.90
55064;DHT22;40963;52.168;21.296;2022-07-23T14:07:43;31.40;46.90
55064;DHT22;40963;52.168;21.296;2022-07-23T14:10:10;31.40;46.40
55064;DHT22;40963;52.168;21.296;2022-07-23T14:12:36;31.30;45.70
55064;DHT22;40963;52.168;21.296;2022-07-23T14:15:03;31.30;45.90
55064;DHT22;40963;52.168;21.296;2022-07-23T14:17:30;31.30;46.10
55064;DHT22;40963;52.168;21.296;2022-07-23T14:19:57;31.30;46.40
55064;DHT22;40963;52.168;21.296;2022-07-23T14:22:23;31.20;46.50
55064;DHT22;40963;52.168;21.296;2022-07-23T14:24:49;31.20;46.50
55064;DHT22;40963;52.168;21.296;2022-07-23T14:27:14;31.20;46.80
55064;DHT22;40963;52.168;21.296;2022-07-23T14:29:40;31.10;47.20
55064;DHT22;40963;52.168;21.296;2022-07-23T14:32:06;31.00;48.40
55064;DHT22;40963;52.168;21.296;2022-07-23T14:34:33;30.80;48.30
55064;DHT22;40963;52.168;21.296;2022-07-23T14:36:59;30.70;48.50
55064;DHT22;40963;52.168;21.296;2022-07-23T14:39:25;30.60;49.00
55064;DHT22;40963;52.168;21.296;2022-07-23T14:41:51;30.40;48.90
55064;DHT22;40963;52.168;21.296;2022-07-23T14:44:17;30.30;48.60
55064;DHT22;40963;52.168;21.296;2022-07-23T14:46:43;30.20;48.60
55064;DHT22;40963;52.168;21.296;2022-07-23T14:49:09;30.20;48.70
55064;DHT22;40963;52.168;21.296;2022-07-23T14:51:35;30.10;49.40
55064;DHT22;40963;52.168;21.296;2022-07-23T14:54:02;30.00;50.50
55064;DHT22;40963;52.168;21.296;2022-07-23T14:56:28;29.90;51.40
55064;DHT22;40963;52.168;21.296;2022-07-23T14:58:53;29.70;52.10
55064;DHT22;40963;52.168;21.296;2022-07-23T15:01:21;29.50;52.30
55064;DHT22;40963;52.168;21.296;2022-07-23T15:03:48;29.40;52.10
55064;DHT22;40963;52.168;21.296;2022-07-23T15:06:13;29.40;52.10
55064;DHT22;40963;52.168;21.296;2022-07-23T15:08:40;29.30;53.40
55064;DHT22;40963;52.168;21.296;2022-07-23T15:11:06;29.10;55.00
55064;DHT22;40963;52.168;21.296;2022-07-23T15:13:35;28.50;56.60
55064;DHT22;40963;52.168;21.296;2022-07-23T15:16:00;28.00;58.60
55064;DHT22;40963;52.168;21.296;2022-07-23T15:18:26;27.60;60.40
55064;DHT22;40963;52.168;21.296;2022-07-23T15:20:52;27.10;62.60
55064;DHT22;40963;52.168;21.296;2022-07-23T15:23:17;26.70;63.40
55064;DHT22;40963;52.168;21.296;2022-07-23T15:25:43;26.30;64.60
55064;DHT22;40963;52.168;21.296;2022-07-23T15:28:09;26.00;66.00
55064;DHT22;40963;52.168;21.296;2022-07-23T15:30:34;25.70;67.60
55064;DHT22;40963;52.168;21.296;2022-07-23T15:33:00;25.50;70.00
55064;DHT22;40963;52.168;21.296;2022-07-23T15:35:26;25.10;71.70
55064;DHT22;40963;52.168;21.296;2022-07-23T15:37:51;24.90;75.00
55064;DHT22;40963;52.168;21.296;2022-07-23T15:40:17;24.60;78.20
55064;DHT22;40963;52.168;21.296;2022-07-23T15:42:43;24.30;80.30
55064;DHT22;40963;52.168;21.296;2022-07-23T15:45:09;24.00;83.70
55064;DHT22;40963;52.168;21.296;2022-07-23T15:47:34;23.70;88.30
55064;DHT22;40963;52.168;21.296;2022-07-23T15:50:00;23.40;90.20
55064;DHT22;40963;52.168;21.296;2022-07-23T15:52:26;23.20;91.30
55064;DHT22;40963;52.168;21.296;2022-07-23T15:54:51;23.00;92.70
55064;DHT22;40963;52.168;21.296;2022-07-23T15:57:18;22.80;94.70
55064;DHT22;40963;52.168;21.296;2022-07-23T15:59:44;22.60;96.20
55064;DHT22;40963;52.168;21.296;2022-07-23T16:02:09;22.50;97.00
55064;DHT22;40963;52.168;21.296;2022-07-23T16:04:35;22.30;97.90
55064;DHT22;40963;52.168;21.296;2022-07-23T16:07:01;22.20;99.10
55064;DHT22;40963;52.168;21.296;2022-07-23T16:09:27;22.10;99.90